Time;durP1;ratioP1;P1;durP2;ratioP2;P2;SDS_P1;SDS_P2;PMS_P1;PMS_P2;Temp;Humidity;BMP_temperature;BMP_pressure;BME280_temperature;BME280_humidity;BME280_pressure;Samples;Min_cycle;Max_cycle;Signal;HPM_P1;HPM_P2
2022/08/25 00:02:05;;;;;;;7.70;4.33;;;17.10;91.60;;;;;;5013540;28;20457;-64
2022/08/25 00:04:34;;;;;;;4.80;4.30;;;17.10;91.90;;;;;;5004622;28;20432;-64
2022/08/25 00:07:01;;;;;;;5.43;4.50;;;17.10;92.10;;;;;;4993847;28;20526;-66
2022/08/25 00:09:28;;;;;;;6.30;5.20;;;17.10;91.80;;;;;;5006441;28;20527;-65
2022/08/25 00:11:55;;;;;;;5.87;5.27;;;17.00;91.80;;;;;;5013543;28;20851;-65
2022/08/25 00:14:26;;;;;;;5.83;4.23;;;17.00;91.70;;;;;;4999785;28;20520;-65
2022/08/25 00:16:53;;;;;;;5.23;4.73;;;17.10;91.70;;;;;;4993159;28;20467;-65
2022/08/25 00:19:27;;;;;;;6.40;5.27;;;17.00;91.50;;;;;;5004350;28;20471;-65
2022/08/25 00:21:54;;;;;;;9.40;4.57;;;17.10;91.50;;;;;;5013513;28;20439;-64
2022/08/25 00:24:22;;;;;;;5.70;4.90;;;17.00;91.40;;;;;;5000069;28;20503;-65
2022/08/25 00:26:51;;;;;;;6.60;5.30;;;17.00;91.70;;;;;;4993431;28;20475;-65
2022/08/25 00:29:18;;;;;;;6.97;4.80;;;16.90;91.50;;;;;;5008955;28;20466;-65
2022/08/25 00:31:47;;;;;;;6.20;4.90;;;16.90;91.50;;;;;;5013235;28;20443;-64
2022/08/25 00:34:17;;;;;;;7.43;4.80;;;16.80;91.40;;;;;;4996451;28;20450;-65
2022/08/25 00:36:45;;;;;;;5.87;5.27;;;16.90;91.60;;;;;;4993618;28;20479;-65
2022/08/25 00:39:13;;;;;;;6.97;5.17;;;16.80;91.90;;;;;;4992443;28;20549;-64
2022/08/25 00:41:43;;;;;;;5.50;4.77;;;16.80;92.30;;;;;;4993218;28;20494;-70
2022/08/25 00:44:12;;;;;;;8.00;4.90;;;16.70;92.60;;;;;;4974005;28;20475;-65
2022/08/25 00:46:43;;;;;;;7.70;6.60;;;16.70;92.60;;;;;;4973854;28;20440;-64
2022/08/25 00:49:15;;;;;;;5.47;4.57;;;16.70;92.40;;;;;;5012202;28;20435;-64
2022/08/25 00:51:46;;;;;;;10.80;8.10;;;16.60;92.00;;;;;;5013120;28;20525;-64
2022/08/25 00:54:18;;;;;;;8.50;7.50;;;16.50;91.90;;;;;;5011589;28;20534;-65
2022/08/25 00:56:46;;;;;;;8.13;7.33;;;16.40;92.10;;;;;;5013066;28;20423;-65
2022/08/25 00:59:14;;;;;;;8.77;6.50;;;16.40;92.00;;;;;;4992617;28;20501;-66
2022/08/25 01:01:41;;;;;;;6.23;5.17;;;16.20;92.60;;;;;;4993349;28;20471;-64
2022/08/25 01:04:08;;;;;;;6.93;6.30;;;16.20;92.70;;;;;;5009550;28;20471;-64
2022/08/25 01:06:39;;;;;;;6.87;6.07;;;16.20;92.80;;;;;;5009488;28;20474;-68
2022/08/25 01:09:07;;;;;;;6.73;6.03;;;16.20;92.60;;;;;;5012557;28;20478;-64
2022/08/25 01:11:34;;;;;;;7.57;6.80;;;16.20;92.60;;;;;;5011193;28;20481;-65
2022/08/25 01:14:05;;;;;;;7.93;7.13;;;16.20;92.40;;;;;;4993144;28;20511;-65
2022/08/25 01:16:34;;;;;;;6.57;5.90;;;16.20;92.50;;;;;;4992950;28;20451;-67
2022/08/25 01:19:01;;;;;;;8.13;7.30;;;16.20;92.80;;;;;;4973949;28;20491;-64
2022/08/25 01:21:32;;;;;;;7.63;6.40;;;16.20;92.80;;;;;;4984143;28;20466;-65
2022/08/25 01:24:01;;;;;;;8.80;6.50;;;16.20;93.10;;;;;;5011856;28;20537;-64
2022/08/25 01:26:30;;;;;;;7.90;6.50;;;16.10;93.40;;;;;;5006826;28;20848;-66
2022/08/25 01:31:43;;;;;;;7.90;6.00;;;16.10;93.40;;;;;;4992655;28;20526;-64
2022/08/25 01:34:12;;;;;;;7.50;5.43;;;16.10;93.50;;;;;;4993331;28;20436;-65
2022/08/25 01:36:42;;;;;;;6.07;5.57;;;16.00;93.40;;;;;;4990712;28;20555;-64
2022/08/25 01:39:10;;;;;;;7.00;6.00;;;16.00;93.20;;;;;;4993196;28;20486;-64
2022/08/25 01:41:45;;;;;;;6.50;5.90;;;16.10;93.10;;;;;;4990860;28;20981;-65
2022/08/25 01:44:12;;;;;;;5.80;5.00;;;16.10;93.00;;;;;;4992791;28;20441;-64
2022/08/25 01:46:39;;;;;;;6.57;5.50;;;16.10;92.80;;;;;;4991000;28;20467;-64
2022/08/25 01:49:07;;;;;;;6.33;5.73;;;16.10;93.00;;;;;;4993211;28;20526;-64
2022/08/25 01:51:38;;;;;;;6.93;5.40;;;16.10;93.10;;;;;;4990886;28;20448;-64
2022/08/25 01:54:07;;;;;;;6.80;4.97;;;16.10;93.20;;;;;;4991962;28;20439;-65
2022/08/25 01:56:34;;;;;;;7.70;4.97;;;16.10;93.10;;;;;;5010819;28;20506;-64
2022/08/25 01:59:01;;;;;;;5.70;5.20;;;16.00;92.90;;;;;;5015630;28;20486;-65
2022/08/25 02:01:29;;;;;;;5.23;4.70;;;15.90;93.10;;;;;;5014135;28;20435;-66
2022/08/25 02:03:57;;;;;;;6.50;5.23;;;15.90;93.20;;;;;;5015690;28;20538;-64
2022/08/25 02:06:28;;;;;;;7.83;7.00;;;15.90;93.10;;;;;;4997863;28;20514;-64
2022/08/25 02:08:57;;;;;;;6.60;5.97;;;15.80;93.10;;;;;;5010150;28;20442;-65
2022/08/25 02:11:25;;;;;;;7.40;6.60;;;15.80;93.30;;;;;;5015889;28;20451;-65
2022/08/25 02:13:53;;;;;;;6.70;6.00;;;15.80;93.40;;;;;;4999222;28;20479;-65
2022/08/25 02:16:23;;;;;;;7.30;6.53;;;15.80;93.30;;;;;;4996393;28;20447;-64
2022/08/25 02:18:50;;;;;;;8.10;7.27;;;15.80;93.50;;;;;;4994903;28;20613;-65
2022/08/25 02:21:17;;;;;;;8.80;7.40;;;15.80;93.50;;;;;;4996348;28;20526;-65
2022/08/25 02:23:44;;;;;;;9.00;6.97;;;15.80;93.50;;;;;;4994553;28;20443;-65
2022/08/25 02:26:15;;;;;;;9.53;6.50;;;15.80;93.80;;;;;;4995988;28;20826;-65
2022/08/25 02:28:43;;;;;;;7.70;6.07;;;15.80;93.30;;;;;;5006185;28;20434;-64
2022/08/25 02:31:10;;;;;;;8.60;5.67;;;15.70;93.00;;;;;;5006721;28;20462;-64
2022/08/25 02:33:37;;;;;;;7.47;6.77;;;15.60;93.40;;;;;;5010914;28;20537;-64
2022/08/25 02:36:06;;;;;;;8.00;6.30;;;15.50;93.10;;;;;;5005598;28;20440;-64
2022/08/25 02:38:34;;;;;;;10.17;7.60;;;15.50;93.00;;;;;;4995731;28;20818;-65
2022/08/25 02:41:01;;;;;;;7.50;6.80;;;15.40;93.20;;;;;;5001079;28;20529;-64
2022/08/25 02:43:29;;;;;;;7.70;6.90;;;15.30;93.60;;;;;;5015054;28;20877;-64
2022/08/25 02:45:58;;;;;;;7.40;6.50;;;15.20;93.60;;;;;;4996521;28;20439;-64
2022/08/25 02:48:25;;;;;;;6.80;5.70;;;15.20;93.40;;;;;;4995453;28;20440;-65
2022/08/25 02:50:52;;;;;;;7.50;6.30;;;15.30;93.30;;;;;;5009627;28;20522;-65
2022/08/25 02:53:20;;;;;;;7.23;6.00;;;15.30;93.30;;;;;;5014590;28;20758;-65
2022/08/25 02:55:47;;;;;;;9.60;6.13;;;15.30;93.30;;;;;;4998699;28;20435;-65
2022/08/25 02:58:14;;;;;;;6.13;5.40;;;15.30;93.60;;;;;;4995378;28;20570;-65
2022/08/25 03:00:42;;;;;;;6.50;5.23;;;15.30;93.80;;;;;;5007225;28;20793;-64
2022/08/25 03:03:10;;;;;;;8.13;5.87;;;15.30;93.90;;;;;;5013975;28;20461;-64
2022/08/25 03:05:38;;;;;;;5.50;5.00;;;15.30;94.00;;;;;;5002043;28;20524;-64
2022/08/25 03:08:06;;;;;;;5.73;5.17;;;15.30;94.00;;;;;;4995217;28;20879;-64
2022/08/25 03:10:34;;;;;;;6.60;5.90;;;15.40;94.10;;;;;;5003981;28;20525;-64
2022/08/25 03:13:01;;;;;;;7.40;6.70;;;15.40;94.00;;;;;;5014633;28;20848;-65
2022/08/25 03:15:28;;;;;;;5.60;5.10;;;15.40;93.90;;;;;;5013363;28;20538;-65
2022/08/25 03:17:56;;;;;;;6.17;5.57;;;15.30;93.50;;;;;;5014383;28;20988;-64
2022/08/25 03:20:26;;;;;;;6.37;5.77;;;15.20;93.10;;;;;;5005139;28;20436;-65
2022/08/25 03:22:53;;;;;;;6.70;5.83;;;15.10;93.20;;;;;;4994846;28;20451;-64
2022/08/25 03:28:07;;;;;;;5.97;5.47;;;15.10;93.80;;;;;;5009568;28;20438;-64
2022/08/25 03:30:34;;;;;;;7.10;5.50;;;15.00;93.60;;;;;;4993678;28;20848;-71
2022/08/25 03:33:01;;;;;;;5.80;5.30;;;15.00;93.70;;;;;;5014201;28;20930;-65
2022/08/25 03:35:30;;;;;;;6.80;6.10;;;15.00;93.80;;;;;;4995454;28;20498;-64
2022/08/25 03:37:57;;;;;;;7.77;5.23;;;15.10;93.80;;;;;;5005736;28;20509;-64
2022/08/25 03:40:25;;;;;;;5.97;4.47;;;15.10;93.70;;;;;;5014188;28;20468;-64
2022/08/25 03:42:52;;;;;;;7.23;5.50;;;15.10;93.60;;;;;;4999884;28;20470;-65
2022/08/25 03:45:19;;;;;;;7.03;4.90;;;15.00;93.10;;;;;;4994793;28;20463;-65
2022/08/25 03:47:48;;;;;;;5.90;5.13;;;15.00;93.10;;;;;;5004478;28;20489;-66
2022/08/25 03:50:16;;;;;;;6.70;5.50;;;15.00;93.30;;;;;;5013959;28;20770;-65
2022/08/25 03:52:45;;;;;;;6.47;5.03;;;14.90;93.30;;;;;;5002329;28;20483;-66
2022/08/25 03:55:14;;;;;;;6.60;6.00;;;14.90;93.10;;;;;;4994212;28;20450;-64
2022/08/25 03:57:41;;;;;;;6.60;6.00;;;14.90;93.10;;;;;;5001599;28;20788;-65
2022/08/25 04:00:11;;;;;;;6.57;5.87;;;14.80;93.10;;;;;;5007053;28;20813;-65
2022/08/25 04:02:38;;;;;;;6.77;6.17;;;14.80;93.20;;;;;;5004157;28;20474;-69
2022/08/25 04:05:06;;;;;;;8.43;7.30;;;14.70;93.20;;;;;;4994130;28;20773;-64
2022/08/25 04:07:33;;;;;;;7.40;6.53;;;14.60;93.40;;;;;;4998453;28;20518;-64
2022/08/25 04:10:01;;;;;;;8.90;7.07;;;14.60;93.80;;;;;;5013473;28;20474;-64
2022/08/25 04:12:28;;;;;;;7.13;6.03;;;14.60;94.00;;;;;;5007393;28;20908;-65
2022/08/25 04:14:55;;;;;;;6.37;5.77;;;14.50;93.70;;;;;;4993596;28;20479;-64
2022/08/25 04:17:22;;;;;;;6.97;6.00;;;14.50;93.60;;;;;;4992769;28;20787;-64
2022/08/25 04:19:50;;;;;;;4.97;4.47;;;14.50;93.60;;;;;;4993620;28;21069;-65
2022/08/25 04:22:17;;;;;;;6.43;5.73;;;14.50;94.00;;;;;;4992847;28;20509;-65
2022/08/25 04:24:44;;;;;;;5.53;5.00;;;14.40;93.90;;;;;;4993661;28;20513;-64
2022/08/25 04:27:12;;;;;;;10.10;6.20;;;14.50;94.10;;;;;;4992577;28;20942;-65
2022/08/25 04:29:40;;;;;;;6.67;5.80;;;14.50;94.20;;;;;;4993726;28;20978;-64
2022/08/25 04:32:07;;;;;;;7.40;6.67;;;14.50;94.30;;;;;;5006270;28;20814;-64
2022/08/25 04:34:34;;;;;;;5.90;5.30;;;14.60;94.50;;;;;;5013444;28;20505;-64
2022/08/25 04:37:05;;;;;;;6.10;5.50;;;14.60;94.70;;;;;;4996607;28;20521;-64
2022/08/25 04:39:32;;;;;;;6.27;5.67;;;14.60;94.80;;;;;;4993655;28;20494;-65
2022/08/25 04:41:59;;;;;;;7.20;5.67;;;14.60;94.80;;;;;;4992763;28;20451;-65
2022/08/25 04:44:28;;;;;;;7.43;5.87;;;14.60;94.80;;;;;;4993762;28;20851;-65
2022/08/25 04:46:55;;;;;;;6.13;5.50;;;14.50;94.80;;;;;;5004210;28;20443;-65
2022/08/25 04:49:22;;;;;;;7.97;6.30;;;14.50;94.80;;;;;;5013249;28;20438;-64
2022/08/25 04:51:49;;;;;;;7.67;6.93;;;14.50;95.00;;;;;;5000153;28;20861;-64
2022/08/25 04:54:20;;;;;;;7.10;6.40;;;14.50;95.20;;;;;;4993037;28;20455;-65
2022/08/25 04:56:48;;;;;;;7.43;6.43;;;14.60;95.40;;;;;;5001623;28;20825;-65
2022/08/25 04:59:16;;;;;;;6.60;5.80;;;14.60;95.40;;;;;;5002293;28;20479;-65
2022/08/25 05:01:46;;;;;;;6.80;6.10;;;14.60;95.30;;;;;;4991030;28;20494;-66
2022/08/25 05:04:15;;;;;;;7.43;5.70;;;14.70;95.10;;;;;;4991117;28;20436;-66
2022/08/25 05:06:43;;;;;;;20.70;8.90;;;14.60;94.80;;;;;;4991918;28;20475;-64
2022/08/25 05:09:10;;;;;;;9.43;6.23;;;14.60;95.10;;;;;;4992293;28;20526;-66
2022/08/25 05:11:37;;;;;;;6.53;5.93;;;14.60;95.00;;;;;;4994843;28;20439;-64
2022/08/25 05:14:10;;;;;;;7.53;6.70;;;14.60;95.10;;;;;;4992589;28;20522;-65
2022/08/25 05:16:37;;;;;;;6.57;5.93;;;14.60;95.50;;;;;;4988308;28;20934;-64
2022/08/25 05:19:06;;;;;;;7.50;5.77;;;14.60;95.30;;;;;;4993093;28;20839;-65
2022/08/25 05:21:33;;;;;;;7.10;6.40;;;14.60;95.70;;;;;;4987720;28;21183;-65
2022/08/25 05:24:01;;;;;;;7.03;6.33;;;14.60;96.00;;;;;;4990982;28;20463;-65
2022/08/25 05:26:30;;;;;;;6.57;5.90;;;14.70;96.30;;;;;;4992307;28;20443;-64
2022/08/25 05:28:59;;;;;;;7.50;6.60;;;14.80;96.40;;;;;;4992193;28;20530;-66
2022/08/25 05:31:26;;;;;;;7.10;6.37;;;14.90;96.50;;;;;;4995104;28;20439;-65
2022/08/25 05:33:54;;;;;;;6.70;5.97;;;15.00;96.50;;;;;;4993706;28;20482;-65
2022/08/25 05:36:25;;;;;;;8.73;6.13;;;15.10;96.50;;;;;;4992737;28;20431;-65
2022/08/25 05:38:52;;;;;;;7.27;6.30;;;15.20;96.70;;;;;;4994692;28;20600;-66
2022/08/25 05:41:26;;;;;;;10.33;6.33;;;15.30;96.90;;;;;;4993863;28;20444;-65
2022/08/25 05:43:53;;;;;;;7.37;6.00;;;15.50;97.10;;;;;;4990912;28;20474;-67
2022/08/25 05:46:20;;;;;;;6.63;5.87;;;15.60;97.30;;;;;;4994044;28;20435;-65
2022/08/25 05:48:48;;;;;;;7.50;6.70;;;15.80;97.40;;;;;;4993835;28;20431;-65
2022/08/25 05:51:15;;;;;;;8.60;6.67;;;15.90;97.50;;;;;;4996578;28;20438;-65
2022/08/25 05:53:46;;;;;;;6.67;6.03;;;16.10;97.30;;;;;;4994783;28;20821;-69
2022/08/25 05:56:17;;;;;;;7.63;6.73;;;16.20;97.10;;;;;;4995096;28;20872;-65
2022/08/25 05:58:45;;;;;;;6.13;5.53;;;16.20;97.40;;;;;;4994525;28;20483;-69
2022/08/25 06:04:05;;;;;;;7.47;6.40;;;16.40;97.10;;;;;;4993003;28;20792;-65
2022/08/25 06:06:32;;;;;;;7.67;6.50;;;16.50;96.80;;;;;;4989941;28;20440;-71
2022/08/25 06:09:03;;;;;;;8.10;7.30;;;16.60;96.80;;;;;;4979336;28;20861;-65
2022/08/25 06:11:31;;;;;;;7.87;6.60;;;16.70;96.70;;;;;;4992453;28;20509;-65
2022/08/25 06:13:58;;;;;;;9.00;7.10;;;16.80;96.10;;;;;;4993546;28;20442;-65
2022/08/25 06:16:25;;;;;;;11.23;5.80;;;16.80;96.20;;;;;;4992991;28;20440;-65
2022/08/25 06:18:51;;;;;;;6.63;5.93;;;16.90;96.20;;;;;;4991465;28;20487;-66
2022/08/25 06:21:19;;;;;;;6.77;6.07;;;17.00;96.00;;;;;;4990233;28;20486;-65
2022/08/25 06:23:48;;;;;;;9.73;6.87;;;17.10;96.20;;;;;;4993453;28;20436;-65
2022/08/25 06:26:16;;;;;;;7.57;6.83;;;17.20;96.30;;;;;;4995922;28;20443;-65
2022/08/25 06:28:43;;;;;;;10.57;6.27;;;17.30;96.20;;;;;;4996026;28;20506;-65
2022/08/25 06:31:10;;;;;;;9.37;6.33;;;17.40;96.30;;;;;;4993765;28;20522;-66
2022/08/25 06:33:37;;;;;;;6.73;6.13;;;17.60;96.40;;;;;;4993119;28;20435;-65
2022/08/25 06:36:05;;;;;;;7.57;5.87;;;17.70;96.10;;;;;;4993305;28;20458;-65
2022/08/25 06:38:32;;;;;;;7.03;6.33;;;17.90;96.00;;;;;;4993440;28;20863;-65
2022/08/25 06:41:02;;;;;;;7.53;6.70;;;18.00;95.80;;;;;;4993448;28;20460;-66
2022/08/25 06:43:33;;;;;;;6.47;5.83;;;18.20;95.80;;;;;;4989852;28;20452;-65
2022/08/25 06:46:08;;;;;;;8.27;7.20;;;18.30;95.00;;;;;;4992933;28;20450;-65
2022/08/25 06:48:36;;;;;;;7.10;6.10;;;18.40;95.10;;;;;;4993312;28;20502;-65
2022/08/25 06:51:06;;;;;;;8.23;7.00;;;18.60;95.00;;;;;;4993382;28;21399;-65
2022/08/25 06:53:33;;;;;;;6.97;6.27;;;18.70;94.70;;;;;;4992205;28;20439;-65
2022/08/25 06:56:00;;;;;;;7.63;6.80;;;18.80;95.00;;;;;;4995003;28;20447;-65
2022/08/25 06:58:27;;;;;;;10.80;6.60;;;18.90;94.80;;;;;;4994951;28;20498;-65
2022/08/25 07:00:56;;;;;;;7.47;6.07;;;19.10;94.70;;;;;;4994905;28;20832;-69
2022/08/25 07:03:23;;;;;;;6.70;6.00;;;19.10;94.10;;;;;;4995356;28;20549;-65
2022/08/25 07:05:53;;;;;;;6.50;5.87;;;19.20;94.30;;;;;;4994960;28;20475;-65
2022/08/25 07:08:20;;;;;;;8.23;7.20;;;19.40;94.30;;;;;;4995073;28;20433;-66
2022/08/25 07:10:48;;;;;;;7.30;5.50;;;19.50;94.00;;;;;;4994850;28;20823;-65
2022/08/25 07:13:15;;;;;;;7.37;6.47;;;19.70;93.80;;;;;;4995146;28;20533;-66
2022/08/25 07:15:43;;;;;;;6.47;5.77;;;19.90;93.70;;;;;;4994747;28;20436;-65
2022/08/25 07:18:12;;;;;;;7.43;6.63;;;20.00;93.50;;;;;;4994858;28;20448;-65
2022/08/25 07:20:40;;;;;;;7.00;5.47;;;20.20;93.30;;;;;;4994745;28;20523;-65
2022/08/25 07:23:07;;;;;;;6.33;5.67;;;20.30;92.90;;;;;;4994695;28;20536;-65
2022/08/25 07:25:34;;;;;;;8.90;6.33;;;20.50;93.00;;;;;;4994368;28;20480;-65
2022/08/25 07:28:01;;;;;;;8.53;5.13;;;20.70;92.90;;;;;;4994428;28;20441;-65
2022/08/25 07:30:29;;;;;;;7.23;5.87;;;20.90;92.70;;;;;;4994580;28;20513;-65
2022/08/25 07:32:55;;;;;;;6.37;5.40;;;21.10;92.10;;;;;;4994448;28;20722;-66
2022/08/25 07:35:24;;;;;;;7.23;5.87;;;21.30;92.00;;;;;;4994344;28;20540;-66
2022/08/25 07:37:55;;;;;;;8.33;5.83;;;21.50;92.30;;;;;;4994399;28;20447;-66
2022/08/25 07:40:24;;;;;;;5.10;4.60;;;22.00;92.40;;;;;;4994264;28;20487;-65
2022/08/25 07:42:54;;;;;;;8.43;5.20;;;22.60;93.30;;;;;;4994152;28;20532;-66
2022/08/25 07:45:29;;;;;;;5.93;4.73;;;23.30;92.90;;;;;;4994380;28;20522;-65
2022/08/25 07:47:56;;;;;;;4.70;4.23;;;24.00;86.70;;;;;;4994087;28;20435;-65
2022/08/25 07:50:25;;;;;;;5.33;3.70;;;24.70;87.90;;;;;;4993425;28;20479;-65
2022/08/25 07:52:52;;;;;;;5.63;4.63;;;25.30;86.20;;;;;;4994245;28;20530;-66
2022/08/25 07:55:20;;;;;;;7.23;4.17;;;26.00;81.80;;;;;;4994123;28;20538;-66
2022/08/25 07:57:47;;;;;;;5.10;4.17;;;26.70;78.50;;;;;;4994171;28;20810;-68
2022/08/25 08:00:16;;;;;;;5.57;5.00;;;27.20;72.60;;;;;;4994174;28;20497;-66
2022/08/25 08:02:43;;;;;;;6.47;4.90;;;27.80;66.90;;;;;;4994081;28;20527;-66
2022/08/25 08:05:11;;;;;;;5.77;4.63;;;28.20;65.00;;;;;;4993952;28;20451;-66
2022/08/25 08:07:39;;;;;;;4.97;3.90;;;28.90;65.60;;;;;;4993908;28;20856;-66
2022/08/25 08:10:08;;;;;;;5.53;4.40;;;29.50;54.10;;;;;;4993897;28;20471;-66
2022/08/25 08:12:36;;;;;;;5.43;4.50;;;29.50;54.60;;;;;;4993791;28;20484;-66
2022/08/25 08:15:04;;;;;;;5.90;4.20;;;29.70;54.20;;;;;;4993800;28;20482;-66
2022/08/25 08:17:31;;;;;;;4.63;4.13;;;30.00;53.10;;;;;;4994171;28;20451;-65
2022/08/25 08:19:58;;;;;;;4.13;3.73;;;30.40;52.60;;;;;;4993664;28;20487;-66
2022/08/25 08:22:26;;;;;;;5.37;3.53;;;30.70;49.90;;;;;;4993666;28;20483;-66
2022/08/25 08:24:54;;;;;;;5.07;3.83;;;31.10;50.00;;;;;;4990382;28;20526;-67
2022/08/25 08:27:21;;;;;;;5.07;3.80;;;31.50;49.60;;;;;;4992565;28;20502;-67
2022/08/25 08:29:48;;;;;;;9.00;4.03;;;31.80;46.10;;;;;;4992841;28;20872;-66
2022/08/25 08:32:16;;;;;;;6.60;4.00;;;32.00;46.30;;;;;;4992562;28;20522;-66
2022/08/25 08:34:43;;;;;;;4.23;3.83;;;32.40;46.30;;;;;;4992907;28;20435;-66
2022/08/25 08:37:10;;;;;;;5.03;4.20;;;32.80;44.10;;;;;;4992450;28;20467;-66
2022/08/25 08:39:38;;;;;;;6.03;3.90;;;33.10;44.10;;;;;;4992657;28;20526;-66
2022/08/25 08:42:23;;;;;;;3.47;2.90;;;33.60;43.10;;;;;;4992727;28;20444;-66
2022/08/25 08:45:13;;;;;;;3.80;3.37;;;34.00;42.00;;;;;;4992833;28;20479;-67
2022/08/25 08:47:51;;;;;;;3.90;3.50;;;34.40;40.70;;;;;;4982749;28;20832;-68
2022/08/25 08:50:29;;;;;;;3.70;3.13;;;34.70;40.00;;;;;;4992809;28;20529;-67
2022/08/25 08:53:02;;;;;;;4.60;3.33;;;34.90;39.60;;;;;;4992895;28;20566;-66
2022/08/25 08:55:33;;;;;;;4.30;3.90;;;35.20;39.80;;;;;;4994383;28;20444;-66
2022/08/25 08:58:05;;;;;;;3.50;3.20;;;35.30;38.40;;;;;;4994732;28;20475;-66
2022/08/25 09:00:37;;;;;;;3.83;3.10;;;35.50;38.20;;;;;;4998407;28;20614;-66
2022/08/25 09:03:08;;;;;;;4.60;3.07;;;35.80;37.20;;;;;;5003804;28;20442;-66
2022/08/25 09:05:43;;;;;;;4.70;3.73;;;36.00;35.20;;;;;;5003731;28;20442;-66
2022/08/25 09:08:13;;;;;;;5.10;3.13;;;36.10;35.20;;;;;;5003920;28;20530;-66
2022/08/25 09:10:50;;;;;;;4.30;3.17;;;36.30;35.40;;;;;;5004089;28;20941;-66
2022/08/25 09:13:34;;;;;;;3.63;3.33;;;36.60;34.30;;;;;;5003309;28;20534;-66
2022/08/25 09:19:00;;;;;;;3.77;3.37;;;36.90;33.00;;;;;;5004867;28;20446;-67
2022/08/25 09:21:37;;;;;;;4.37;2.90;;;37.10;32.40;;;;;;5004542;28;20801;-66
2022/08/25 09:24:18;;;;;;;5.43;3.30;;;37.40;31.50;;;;;;5001919;28;20556;-67
2022/08/25 09:26:57;;;;;;;3.80;2.90;;;37.70;30.40;;;;;;5005907;28;20958;-65
2022/08/25 09:29:30;;;;;;;5.93;2.80;;;37.90;29.90;;;;;;5004944;28;20446;-66
2022/08/25 09:32:00;;;;;;;3.43;3.13;;;38.00;29.40;;;;;;5004588;28;20481;-66
2022/08/25 09:34:32;;;;;;;3.87;3.10;;;38.10;29.10;;;;;;5004675;28;20470;-65
2022/08/25 09:37:00;;;;;;;5.80;3.50;;;38.20;29.10;;;;;;5002866;28;20878;-65
2022/08/25 09:39:27;;;;;;;4.40;2.80;;;38.30;29.80;;;;;;5004592;28;20442;-66
2022/08/25 09:41:56;;;;;;;4.90;3.33;;;38.50;29.30;;;;;;5004758;28;20485;-65
2022/08/25 09:44:26;;;;;;;3.90;3.17;;;38.60;29.60;;;;;;5005122;28;20522;-65
2022/08/25 09:47:00;;;;;;;8.40;4.77;;;38.70;29.20;;;;;;5005086;28;20454;-66
2022/08/25 09:49:39;;;;;;;7.83;3.40;;;38.80;28.40;;;;;;5001497;28;20443;-65
2022/08/25 09:52:31;;;;;;;3.43;3.10;;;38.70;29.40;;;;;;5005732;28;20438;-66
2022/08/25 09:55:16;;;;;;;4.00;2.57;;;38.80;28.30;;;;;;5004700;28;20435;-65
2022/08/25 09:57:47;;;;;;;4.47;3.73;;;38.80;28.50;;;;;;5003631;28;20462;-66
2022/08/25 10:00:21;;;;;;;7.60;5.20;;;38.80;28.60;;;;;;5007745;28;20878;-66
2022/08/25 10:03:03;;;;;;;9.57;6.00;;;38.90;28.20;;;;;;5007872;28;20443;-66
2022/08/25 10:05:34;;;;;;;5.00;3.90;;;38.70;29.10;;;;;;5003655;28;20501;-66
2022/08/25 10:08:03;;;;;;;4.83;3.17;;;38.70;28.70;;;;;;5005934;28;20447;-65
2022/08/25 10:10:32;;;;;;;3.97;3.57;;;38.60;29.00;;;;;;5006253;28;20482;-65
2022/08/25 10:13:00;;;;;;;4.03;3.40;;;38.70;29.30;;;;;;5005677;28;20438;-66
2022/08/25 10:15:32;;;;;;;4.50;3.57;;;38.80;29.20;;;;;;5006407;28;20450;-66
2022/08/25 10:18:22;;;;;;;4.57;2.87;;;39.00;29.20;;;;;;5006649;28;20483;-66
2022/08/25 10:21:04;;;;;;;3.67;3.10;;;38.90;29.40;;;;;;5008749;28;20494;-67
2022/08/25 10:23:32;;;;;;;4.37;3.27;;;38.70;29.30;;;;;;4999867;28;20923;-65
2022/08/25 10:26:04;;;;;;;6.60;3.43;;;38.70;28.30;;;;;;5005966;28;20474;-65
2022/08/25 10:28:42;;;;;;;3.50;3.20;;;38.50;28.80;;;;;;5007444;28;20466;-65
2022/08/25 10:31:19;;;;;;;4.10;3.33;;;38.20;29.30;;;;;;5008154;28;20526;-65
2022/08/25 10:34:02;;;;;;;4.13;3.17;;;37.70;30.30;;;;;;5006911;28;20493;-66
2022/08/25 10:36:41;;;;;;;3.57;3.23;;;37.50;30.80;;;;;;5003528;28;20501;-65
2022/08/25 10:39:17;;;;;;;5.97;3.20;;;37.20;31.10;;;;;;5008303;28;20461;-65
2022/08/25 10:41:52;;;;;;;3.90;3.40;;;36.90;30.30;;;;;;5010590;28;21040;-66
2022/08/25 10:47:42;;;;;;;4.63;3.80;;;36.40;29.80;;;;;;5009613;28;20438;-67
2022/08/25 10:50:18;;;;;;;5.67;3.10;;;36.00;31.90;;;;;;5006167;28;20594;-66
2022/08/25 10:53:00;;;;;;;3.83;3.40;;;35.80;32.00;;;;;;5009887;28;20500;-66
2022/08/25 10:55:39;;;;;;;3.77;2.87;;;35.60;32.60;;;;;;5011551;28;20975;-65
2022/08/25 10:58:18;;;;;;;3.97;3.57;;;35.50;32.10;;;;;;5006058;28;20446;-65
2022/08/25 11:00:59;;;;;;;5.00;3.80;;;35.30;32.50;;;;;;5012239;28;20470;-66
2022/08/25 11:03:45;;;;;;;3.43;3.13;;;35.10;33.20;;;;;;5012031;28;20470;-66
2022/08/25 11:06:17;;;;;;;4.90;3.03;;;34.90;33.90;;;;;;5001466;28;20486;-65
2022/08/25 11:08:51;;;;;;;3.90;3.40;;;34.60;33.70;;;;;;5012626;28;20453;-66
2022/08/25 11:11:26;;;;;;;4.17;2.87;;;34.50;33.30;;;;;;4992709;28;20553;-65
2022/08/25 11:13:58;;;;;;;3.07;2.67;;;34.50;32.80;;;;;;4993282;28;20451;-65
2022/08/25 11:16:36;;;;;;;3.43;2.63;;;34.30;33.10;;;;;;4993176;28;20498;-65
2022/08/25 11:19:13;;;;;;;4.33;2.83;;;34.10;31.50;;;;;;4990851;28;20562;-65
2022/08/25 11:21:48;;;;;;;3.67;2.70;;;33.80;31.80;;;;;;4994002;28;20447;-65
2022/08/25 11:24:33;;;;;;;3.40;2.73;;;33.60;33.00;;;;;;4991890;28;20889;-65
2022/08/25 11:27:04;;;;;;;3.30;2.70;;;33.60;33.60;;;;;;4995494;28;20459;-65
2022/08/25 11:29:35;;;;;;;3.40;2.90;;;33.60;33.90;;;;;;4996026;28;22056;-65
2022/08/25 11:32:04;;;;;;;4.07;3.20;;;33.50;34.10;;;;;;4996568;28;20483;-65
2022/08/25 11:34:35;;;;;;;4.47;3.10;;;33.40;34.00;;;;;;4995674;28;20466;-65
2022/08/25 11:37:08;;;;;;;3.80;3.40;;;33.40;32.60;;;;;;4996284;28;20846;-65
2022/08/25 11:39:58;;;;;;;4.13;3.20;;;33.30;34.60;;;;;;4996024;28;20455;-65
2022/08/25 11:42:36;;;;;;;3.47;2.80;;;33.30;36.00;;;;;;4996368;28;20451;-65
2022/08/25 11:45:11;;;;;;;4.60;3.30;;;33.30;35.70;;;;;;4997419;28;20492;-65
2022/08/25 11:48:02;;;;;;;3.47;2.90;;;33.40;35.50;;;;;;5088603;27;20521;-65
2022/08/25 11:50:31;;;;;;;4.50;2.80;;;33.40;35.90;;;;;;5075152;28;20472;-65
2022/08/25 11:53:15;;;;;;;4.00;3.40;;;33.50;36.40;;;;;;5074983;28;20552;-65
2022/08/25 11:55:49;;;;;;;3.43;3.10;;;33.50;36.00;;;;;;5074575;28;20476;-65
2022/08/25 11:58:34;;;;;;;3.57;3.27;;;33.40;35.20;;;;;;5076150;28;20448;-65
2022/08/25 12:01:02;;;;;;;3.70;3.17;;;33.30;35.10;;;;;;5069589;28;20523;-65
2022/08/25 12:03:53;;;;;;;4.20;3.07;;;33.30;36.60;;;;;;5070172;28;20475;-65
2022/08/25 12:06:27;;;;;;;4.53;3.37;;;33.30;35.20;;;;;;5070253;28;20480;-65
2022/08/25 12:09:20;;;;;;;4.47;2.90;;;33.20;35.50;;;;;;5070096;28;20941;-65
2022/08/25 12:11:56;;;;;;;4.63;2.87;;;33.30;35.30;;;;;;5070128;28;20507;-65
2022/08/25 12:14:46;;;;;;;6.33;3.40;;;33.30;35.30;;;;;;5069821;28;20436;-65
2022/08/25 12:17:24;;;;;;;5.17;4.07;;;33.30;35.40;;;;;;5069827;28;20979;-66
2022/08/25 12:19:56;;;;;;;10.23;3.50;;;33.30;35.80;;;;;;5069726;28;20439;-67
2022/08/25 12:22:57;;;;;;;5.30;3.53;;;33.30;36.30;;;;;;5069752;28;20476;-65
2022/08/25 12:25:43;;;;;;;8.23;3.60;;;33.30;35.10;;;;;;5069363;28;20431;-65
2022/08/25 12:28:26;;;;;;;5.70;3.30;;;33.30;35.70;;;;;;5069331;28;20444;-65
2022/08/25 12:30:58;;;;;;;4.60;3.40;;;33.40;35.20;;;;;;5069614;28;20448;-65
2022/08/25 12:33:39;;;;;;;4.50;3.47;;;33.40;35.30;;;;;;5069695;28;20482;-65
2022/08/25 12:36:10;;;;;;;4.10;3.07;;;33.40;35.30;;;;;;5069443;28;20479;-65
2022/08/25 12:38:44;;;;;;;4.20;3.70;;;33.40;35.40;;;;;;5069516;28;20451;-65
2022/08/25 12:41:13;;;;;;;4.37;3.80;;;33.30;35.00;;;;;;5069408;28;20440;-65
2022/08/25 12:43:42;;;;;;;4.37;3.33;;;33.20;35.90;;;;;;5069412;28;20773;-65
2022/08/25 12:46:38;;;;;;;5.30;3.20;;;33.10;36.00;;;;;;5068724;28;20566;-65
2022/08/25 12:49:28;;;;;;;3.60;3.30;;;33.20;35.90;;;;;;5069143;28;20458;-65
2022/08/25 12:52:01;;;;;;;3.30;2.87;;;33.30;35.80;;;;;;5069014;28;20440;-65
2022/08/25 12:54:42;;;;;;;7.73;3.67;;;33.20;36.90;;;;;;5068620;28;20950;-65
2022/08/25 12:57:38;;;;;;;4.40;3.17;;;33.30;36.20;;;;;;5066500;28;20437;-65
2022/08/25 13:00:15;;;;;;;4.83;3.60;;;33.40;35.20;;;;;;5055576;28;20444;-65
2022/08/25 13:03:30;;;;;;;4.37;3.40;;;33.40;32.90;;;;;;5055847;28;20432;-66
2022/08/25 13:06:22;;;;;;;5.50;3.10;;;33.30;34.60;;;;;;5055403;28;20444;-65
2022/08/25 13:09:28;;;;;;;3.80;2.77;;;33.10;35.30;;;;;;5055570;28;20443;-65
2022/08/25 13:12:02;;;;;;;3.23;2.80;;;33.10;36.30;;;;;;5055546;28;20441;-65
2022/08/25 13:14:37;;;;;;;3.27;2.70;;;33.00;35.70;;;;;;5055298;28;20905;-66
2022/08/25 13:17:04;;;;;;;3.23;2.60;;;33.00;35.70;;;;;;5055463;28;20555;-65
2022/08/25 13:19:31;;;;;;;4.40;2.87;;;33.00;34.90;;;;;;5055583;28;20484;-65
2022/08/25 13:22:01;;;;;;;3.30;2.30;;;33.00;34.00;;;;;;5055056;28;20528;-65